createdAt,value
2022-08-30T00:00:26.347Z,17.70
2022-08-30T00:04:28.103Z,17.70
2022-08-30T00:08:29.877Z,17.80
2022-08-30T00:12:32.640Z,17.90
2022-08-30T00:16:34.429Z,17.80
2022-08-30T00:20:38.237Z,17.80
2022-08-30T00:24:40.106Z,17.80
2022-08-30T00:28:42.006Z,17.70
2022-08-30T00:32:43.833Z,17.70
2022-08-30T00:36:45.789Z,17.60
2022-08-30T00:40:47.675Z,17.40
2022-08-30T00:44:50.190Z,17.40
2022-08-30T00:48:52.731Z,17.30
2022-08-30T00:52:58.138Z,17.20
2022-08-30T00:57:00.322Z,17.30
2022-08-30T01:01:02.726Z,17.20
2022-08-30T01:05:06.686Z,17.10
2022-08-30T01:09:09.367Z,17.10
2022-08-30T01:13:13.806Z,17.20
2022-08-30T01:17:16.496Z,17.10
2022-08-30T01:26:04.570Z,17.00
2022-08-30T01:30:07.739Z,17.00
2022-08-30T01:34:09.979Z,17.00
2022-08-30T01:38:12.944Z,17.00
2022-08-30T01:42:17.310Z,17.00
2022-08-30T01:46:23.416Z,17.00
2022-08-30T01:50:25.267Z,16.90
2022-08-30T01:54:27.288Z,16.80
2022-08-30T01:58:36.245Z,16.80
2022-08-30T02:02:38.000Z,16.80
2022-08-30T02:06:39.785Z,16.80
2022-08-30T02:10:41.917Z,16.80
2022-08-30T02:14:43.833Z,16.80
2022-08-30T02:18:45.848Z,16.80
2022-08-30T02:22:48.384Z,16.80
2022-08-30T02:26:53.119Z,16.80
2022-08-30T02:30:55.132Z,16.80
2022-08-30T02:34:56.865Z,16.90
2022-08-30T02:38:58.735Z,16.90
2022-08-30T02:43:00.566Z,16.80
2022-08-30T02:47:02.337Z,16.90
2022-08-30T02:51:11.637Z,16.80
2022-08-30T02:55:13.588Z,16.80
2022-08-30T02:59:16.352Z,16.80
2022-08-30T03:03:18.355Z,16.80
2022-08-30T03:07:20.498Z,16.70
2022-08-30T03:11:22.301Z,16.70
2022-08-30T03:15:26.315Z,16.70
2022-08-30T03:19:28.443Z,16.60
2022-08-30T03:23:31.418Z,16.70
2022-08-30T03:27:33.455Z,16.60
2022-08-30T03:31:52.626Z,16.70
2022-08-30T03:35:55.682Z,16.70
2022-08-30T03:39:57.629Z,16.60
2022-08-30T03:44:00.759Z,16.60
2022-08-30T03:48:03.527Z,16.60
2022-08-30T03:52:05.599Z,16.60
2022-08-30T03:56:07.317Z,16.50
2022-08-30T04:00:10.940Z,16.40
2022-08-30T04:04:14.565Z,16.40
2022-08-30T04:08:23.293Z,16.30
2022-08-30T04:12:25.088Z,16.20
2022-08-30T04:16:27.150Z,16.10
2022-08-30T04:20:28.970Z,16.10
2022-08-30T04:24:30.676Z,16.00
2022-08-30T04:28:33.953Z,16.00
2022-08-30T04:32:36.124Z,16.10
2022-08-30T04:36:38.044Z,16.00
2022-08-30T04:40:43.210Z,16.00
2022-08-30T04:44:45.092Z,15.90
2022-08-30T04:48:47.254Z,15.90
2022-08-30T04:52:48.984Z,15.90
2022-08-30T04:56:50.715Z,15.80
2022-08-30T05:00:52.705Z,15.80
2022-08-30T05:05:14.267Z,15.80
2022-08-30T05:09:16.395Z,15.80
2022-08-30T05:13:20.656Z,15.90
2022-08-30T05:17:26.160Z,15.90
2022-08-30T05:21:29.139Z,16.00
2022-08-30T05:25:41.270Z,16.00
2022-08-30T05:29:43.025Z,16.00
2022-08-30T05:33:45.912Z,16.10
2022-08-30T05:37:47.696Z,16.10
2022-08-30T05:41:49.408Z,16.10
2022-08-30T05:46:03.078Z,16.10
2022-08-30T05:50:07.048Z,16.10
2022-08-30T05:54:08.936Z,16.20
2022-08-30T05:58:10.687Z,16.20
2022-08-30T06:02:12.574Z,16.20
2022-08-30T06:06:14.480Z,16.30
2022-08-30T06:10:16.877Z,16.30
2022-08-30T06:14:19.335Z,16.30
2022-08-30T06:18:27.909Z,16.40
2022-08-30T06:22:30.587Z,16.40
2022-08-30T06:26:36.827Z,16.50
2022-08-30T06:30:40.597Z,16.60
2022-08-30T06:34:42.302Z,16.70
2022-08-30T06:38:45.208Z,16.80
2022-08-30T06:42:47.616Z,16.90
2022-08-30T06:46:49.410Z,17.00
2022-08-30T06:50:54.895Z,17.20
2022-08-30T06:54:58.861Z,17.30
2022-08-30T06:59:00.792Z,17.40
2022-08-30T07:03:02.737Z,17.50
2022-08-30T07:07:04.940Z,17.50
2022-08-30T07:11:08.344Z,17.60
2022-08-30T07:15:10.613Z,17.80
2022-08-30T07:19:20.420Z,18.00
2022-08-30T07:23:23.235Z,18.10
2022-08-30T07:27:25.015Z,18.20
2022-08-30T07:31:26.790Z,18.30
2022-08-30T07:35:28.732Z,18.50
2022-08-30T07:39:31.841Z,18.50
2022-08-30T07:43:35.836Z,18.60
2022-08-30T07:47:37.844Z,18.80
2022-08-30T07:51:40.619Z,19.00
2022-08-30T07:55:42.352Z,19.00
2022-08-30T07:59:44.080Z,19.10
2022-08-30T08:03:47.848Z,19.10
2022-08-30T08:07:49.648Z,19.30
2022-08-30T08:11:51.389Z,19.50
2022-08-30T08:15:53.464Z,19.60
2022-08-30T08:19:55.263Z,19.50
2022-08-30T08:23:57.098Z,19.80
2022-08-30T08:27:59.021Z,19.80
2022-08-30T08:32:01.006Z,19.90
2022-08-30T08:36:05.196Z,20.20
2022-08-30T08:40:16.719Z,20.50
2022-08-30T08:44:50.560Z,20.60
2022-08-30T08:49:01.212Z,20.60
2022-08-30T08:53:50.697Z,20.80
2022-08-30T08:57:57.436Z,21.10
2022-08-30T09:02:02.939Z,21.10
2022-08-30T09:06:31.149Z,21.10
2022-08-30T09:10:49.153Z,21.40
2022-08-30T09:14:55.736Z,21.40
2022-08-30T09:18:57.660Z,21.70
2022-08-30T09:23:19.687Z,22.00
2022-08-30T09:27:26.186Z,22.00
2022-08-30T09:31:32.621Z,22.20
2022-08-30T09:35:46.461Z,22.80
2022-08-30T09:39:48.695Z,23.00
2022-08-30T09:44:15.204Z,23.40
2022-08-30T09:48:23.004Z,23.50
2022-08-30T09:53:02.645Z,23.70
2022-08-30T09:57:19.523Z,24.00
2022-08-30T10:01:53.439Z,24.10
2022-08-30T10:06:18.751Z,23.00
2022-08-30T10:10:46.483Z,23.20
2022-08-30T10:15:26.575Z,23.90
2022-08-30T10:20:10.964Z,24.00
2022-08-30T10:24:19.692Z,24.40
2022-08-30T10:28:36.442Z,25.10
2022-08-30T10:32:52.376Z,25.30
2022-08-30T10:37:06.986Z,25.40
2022-08-30T10:41:37.813Z,24.60
2022-08-30T10:45:44.716Z,23.90
2022-08-30T10:49:47.571Z,23.50
2022-08-30T10:53:57.601Z,23.10
2022-08-30T10:58:01.552Z,23.00
2022-08-30T11:02:21.569Z,23.00
2022-08-30T11:06:41.899Z,22.90
2022-08-30T11:11:01.849Z,23.10
2022-08-30T11:15:21.497Z,23.20
2022-08-30T11:19:49.763Z,23.30
2022-08-30T11:28:35.160Z,23.20
2022-08-30T11:33:11.724Z,23.50
2022-08-30T11:37:35.947Z,23.60
2022-08-30T11:41:45.598Z,23.80
2022-08-30T11:45:52.472Z,23.80
2022-08-30T11:50:14.289Z,23.70
2022-08-30T11:54:21.699Z,24.00
2022-08-30T11:58:54.732Z,24.10
2022-08-30T12:03:03.586Z,24.10
2022-08-30T12:07:07.771Z,24.10
2022-08-30T12:11:13.106Z,24.10
2022-08-30T12:15:48.871Z,24.60
2022-08-30T12:19:51.712Z,24.60
2022-08-30T12:23:57.258Z,24.50
2022-08-30T12:28:33.322Z,24.60
2022-08-30T12:32:45.555Z,24.30
2022-08-30T12:37:20.845Z,24.60
2022-08-30T12:41:24.125Z,24.60
2022-08-30T12:45:31.721Z,24.50
2022-08-30T12:49:37.904Z,24.70
2022-08-30T12:53:42.572Z,24.80
2022-08-30T12:58:11.463Z,24.80
2022-08-30T13:02:20.348Z,24.70
2022-08-30T13:06:55.947Z,24.90
2022-08-30T13:11:08.424Z,25.10
2022-08-30T13:15:11.931Z,25.10
2022-08-30T13:19:33.501Z,25.10
2022-08-30T13:23:35.213Z,25.10
2022-08-30T13:27:38.931Z,25.10
2022-08-30T13:31:41.791Z,25.30
2022-08-30T13:35:45.700Z,25.40
2022-08-30T13:39:47.612Z,25.60
2022-08-30T13:48:13.442Z,25.50
2022-08-30T13:52:25.550Z,25.60
2022-08-30T13:56:32.108Z,25.60
2022-08-30T14:00:37.825Z,25.30
2022-08-30T14:04:39.915Z,25.40
2022-08-30T14:08:46.314Z,25.60
2022-08-30T14:12:57.345Z,25.60
2022-08-30T14:17:02.658Z,25.80
2022-08-30T14:21:04.537Z,26.10
2022-08-30T14:25:07.974Z,26.30
2022-08-30T14:29:19.281Z,26.50
2022-08-30T14:33:21.002Z,26.30
2022-08-30T14:37:23.410Z,26.30
2022-08-30T14:41:27.015Z,26.10
2022-08-30T14:45:28.868Z,26.10
2022-08-30T14:49:30.648Z,25.90
2022-08-30T14:53:32.397Z,25.70
2022-08-30T14:57:34.325Z,25.60
2022-08-30T15:01:38.903Z,25.60
2022-08-30T15:05:40.918Z,25.50
2022-08-30T15:09:43.653Z,25.50
2022-08-30T15:13:46.317Z,25.50
2022-08-30T15:17:48.627Z,25.40
2022-08-30T15:21:51.231Z,25.30
2022-08-30T15:25:54.245Z,25.30
2022-08-30T15:29:55.962Z,25.10
2022-08-30T15:33:58.743Z,25.10
2022-08-30T15:38:00.539Z,25.10
2022-08-30T15:42:02.264Z,25.00
2022-08-30T15:46:29.688Z,24.80
2022-08-30T15:50:31.964Z,24.80
2022-08-30T15:54:33.739Z,24.70
2022-08-30T15:58:35.470Z,24.90
2022-08-30T16:02:37.556Z,24.70
2022-08-30T16:06:41.773Z,24.70
2022-08-30T16:10:43.734Z,24.70
2022-08-30T16:14:47.963Z,24.60
2022-08-30T16:18:54.090Z,24.50
2022-08-30T16:22:57.095Z,24.40
2022-08-30T16:26:58.951Z,24.30
2022-08-30T16:31:01.929Z,24.10
2022-08-30T16:35:06.507Z,24.20
2022-08-30T16:39:09.605Z,24.10
2022-08-30T16:43:11.443Z,23.90
2022-08-30T16:47:13.573Z,23.90
2022-08-30T16:51:19.431Z,23.70
2022-08-30T16:55:21.418Z,23.50
2022-08-30T16:59:24.585Z,23.50
2022-08-30T17:03:26.600Z,23.40
2022-08-30T17:07:28.420Z,23.30
2022-08-30T17:11:31.367Z,23.20
2022-08-30T17:15:33.537Z,23.00
2022-08-30T17:19:41.141Z,23.00
2022-08-30T17:23:43.183Z,22.90
2022-08-30T17:27:46.660Z,22.80
2022-08-30T17:31:51.241Z,22.70
2022-08-30T17:35:54.691Z,22.70
2022-08-30T17:40:00.049Z,22.60
2022-08-30T17:44:02.296Z,22.60
2022-08-30T17:48:06.840Z,22.40
2022-08-30T17:52:09.518Z,22.30
2022-08-30T17:56:14.425Z,22.30
2022-08-30T18:00:16.610Z,22.20
2022-08-30T18:04:20.844Z,22.00
2022-08-30T18:08:22.595Z,22.00
2022-08-30T18:12:24.487Z,21.90
2022-08-30T18:16:28.732Z,21.90
2022-08-30T18:20:32.325Z,21.70
2022-08-30T18:24:34.643Z,21.70
2022-08-30T18:28:36.604Z,21.60
2022-08-30T18:32:38.386Z,21.60
2022-08-30T18:36:41.356Z,21.50
2022-08-30T18:40:43.865Z,21.40
2022-08-30T18:44:45.648Z,21.30
2022-08-30T18:48:48.675Z,21.20
2022-08-30T18:52:52.572Z,21.10
2022-08-30T18:56:58.097Z,21.10
2022-08-30T19:00:59.874Z,21.00
2022-08-30T19:05:01.759Z,21.00
2022-08-30T19:09:03.624Z,21.00
2022-08-30T19:13:11.030Z,20.90
2022-08-30T19:17:14.503Z,20.90
2022-08-30T19:21:16.291Z,20.90
2022-08-30T19:25:20.551Z,20.90
2022-08-30T19:29:22.287Z,20.90
2022-08-30T19:33:26.089Z,20.70
2022-08-30T19:37:28.346Z,20.70
2022-08-30T19:41:30.176Z,20.60
2022-08-30T19:45:31.901Z,20.60
2022-08-30T19:49:36.010Z,20.60
2022-08-30T19:53:38.095Z,20.50
2022-08-30T19:57:40.125Z,20.50
2022-08-30T20:01:41.971Z,20.40
2022-08-30T20:05:47.484Z,20.40
2022-08-30T20:09:51.547Z,20.40
2022-08-30T20:14:00.770Z,20.40
2022-08-30T20:18:06.142Z,20.40
2022-08-30T20:22:15.175Z,20.40
2022-08-30T20:26:17.114Z,20.40
2022-08-30T20:30:19.343Z,20.40
2022-08-30T20:34:27.103Z,20.30
2022-08-30T20:38:28.843Z,20.30
2022-08-30T20:42:31.220Z,20.30
2022-08-30T20:46:34.345Z,20.10
2022-08-30T20:50:38.351Z,20.10
2022-08-30T20:54:40.248Z,20.20
2022-08-30T20:58:42.614Z,20.00
2022-08-30T21:02:46.950Z,20.10
2022-08-30T21:06:50.299Z,20.00
2022-08-30T21:10:53.772Z,19.90
2022-08-30T21:14:55.518Z,19.90
2022-08-30T21:18:57.328Z,19.90
2022-08-30T21:22:59.175Z,19.90
2022-08-30T21:27:01.001Z,19.80
2022-08-30T21:31:11.780Z,19.70
2022-08-30T21:35:32.396Z,19.70
2022-08-30T21:39:34.506Z,19.70
2022-08-30T21:43:36.333Z,19.70
2022-08-30T21:47:38.541Z,19.70
2022-08-30T21:51:43.491Z,19.60
2022-08-30T21:55:45.611Z,19.70
2022-08-30T21:59:49.965Z,19.60
2022-08-30T22:03:54.074Z,19.60
2022-08-30T22:07:55.807Z,19.60
2022-08-30T22:11:57.564Z,19.60
2022-08-30T22:16:00.084Z,19.50
2022-08-30T22:20:01.845Z,19.50
2022-08-30T22:24:04.178Z,19.40
2022-08-30T22:28:05.885Z,19.40
2022-08-30T22:32:08.930Z,19.30
2022-08-30T22:36:15.683Z,19.30
2022-08-30T22:40:17.608Z,19.20
2022-08-30T22:44:19.409Z,19.30
2022-08-30T22:48:21.145Z,19.20
2022-08-30T22:52:25.213Z,19.20
2022-08-30T22:56:28.248Z,19.00
2022-08-30T23:00:30.241Z,19.00
2022-08-30T23:04:32.495Z,19.00
2022-08-30T23:08:34.406Z,18.90
2022-08-30T23:12:36.889Z,18.90
2022-08-30T23:16:38.856Z,18.90
2022-08-30T23:20:40.640Z,18.90
2022-08-30T23:25:01.092Z,18.90
2022-08-30T23:29:22.025Z,18.90
2022-08-30T23:33:42.419Z,18.90
2022-08-30T23:38:03.072Z,18.90
2022-08-30T23:42:23.495Z,19.00
2022-08-30T23:46:43.964Z,18.90
2022-08-30T23:51:04.527Z,18.90
2022-08-30T23:55:25.495Z,18.90
2022-08-30T23:59:46.196Z,18.90
